Impacts TAF Board INFO
FOR SITUATIONAL AWARENESS. NOT TO BE USED FOR FLIGHT PLANNING PURPOSES.
IDs:

KSFO - San Francisco Intl, CA, US

Issued at 1726 UTC 24 Apr 2018
Updated at 2056 UTC 24 Apr 2018
Potential Impact None Slight Moderate High
Time<<25/21Z 25/22Z 25/23Z 26/00Z 26/01Z 26/02Z 26/03Z 26/04Z 26/05Z 26/06Z 26/07Z 26/08Z 26/09Z
Type PRVL PRVL PRVL
VIS >6 >6 >6
CIG -- -- --
Cover SCT SCT SCT
FltCat VFR VFR VFR
WX -- -- --
WDir 300 300 300
WSpd 12 12 12
WGst -- -- --

Raw TAF
KSFO 241726Z 2418/2524 33008KT P6SM SCT015 SCT200
  FM242100 30014G20KT P6SM SCT200
  FM250400 29011KT P6SM FEW011 SCT200
  FM250800 29007KT P6SM SCT011
  FM251000 28005KT 6SM BR BKN010
  FM251800 28005KT P6SM SCT011
  FM252000 30012KT P6SM FEW012 SCT200


METAR Board
Radar Display
Forecast Discussion

FOR SITUATIONAL AWARENESS. NOT TO BE USED FOR FLIGHT PLANNING PURPOSES.